Terminal Aerodrome Forecast
Issued by NWS Boston, MA

Home | Current Version | Previous Version | Text Only | Print | Product List | Glossary On
Versions: 1 2 3 4 5 6 7 8 9 10 11 12 13 14 15 16 17 18 19 20 21
000
FTUS41 KBOX 260213 AAA
TAFBOS
TAF AMD
KBOS 260213Z 2602/2706 14006KT P6SM -SHRA SCT003 OVC008
      WS020/18040KT
     FM260500 15008KT 1/2SM -SHRA FG OVC003
     FM261000 17006KT 3/4SM BR VCSH OVC003
     FM261300 23009KT P6SM BKN008
     FM261600 25012KT P6SM BKN040
     FM262300 27014G24KT P6SM FEW200
     FM270200 26010KT P6SM FEW250=

USA.gov is the U.S. government's official web portal to all federal, state and local government web resources and services.